ARG1009 SAZS-SACO
Flight info
| Callsign | ARG1009 |
|---|---|
| Flight time | 0h 58m |
| Altitude | 39000 |
| Route | CHATO2C CHATO UW44 MOCHO UT685 ALDEX ALDEX1Q |
| Aircraft | B772/H-SDE2E3FGHIJ5LORVWXY/LB1D1 |
Departure
| Time | 2026-04-24 23:08 |
|---|---|
| Airport | Teniente Luis Candelaria International Airport (SAZS) |
Arrival
| Time | 2026-04-25 00:06 |
|---|---|
| Airport | Ingeniero Aeronáutico Ambrosio L.V. Taravella International Airport (SACO) |
| Time | Latitude | Longitude | Altitude | Speed | Heading |
|---|---|---|---|---|---|
| 2026-04-24 22:44 | -41.14720 | -71.16120 | 2753 ft | 0 kts | 68° |
| 2026-04-24 22:59 | -41.14724 | -71.16133 | 2758 ft | 3 kts | 68° |
| 2026-04-24 22:59 | -41.14739 | -71.16182 | 2757 ft | 3 kts | 68° |
| 2026-04-24 23:00 | -41.14747 | -71.16207 | 2759 ft | 3 kts | 68° |
| 2026-04-24 23:00 | -41.14754 | -71.16230 | 2758 ft | 1 kts | 68° |
| 2026-04-24 23:02 | -41.14755 | -71.16220 | 2757 ft | 1 kts | 97° |
| 2026-04-24 23:02 | -41.14762 | -71.16209 | 2755 ft | 2 kts | 133° |
| 2026-04-24 23:03 | -41.14778 | -71.16188 | 2759 ft | 4 kts | 134° |
| 2026-04-24 23:03 | -41.14799 | -71.16160 | 2755 ft | 5 kts | 134° |
| 2026-04-24 23:03 | -41.14829 | -71.16108 | 2757 ft | 9 kts | 122° |
| 2026-04-24 23:03 | -41.14865 | -71.16014 | 2757 ft | 13 kts | 115° |
| 2026-04-24 23:04 | -41.14902 | -71.15909 | 2755 ft | 13 kts | 114° |
| 2026-04-24 23:04 | -41.14939 | -71.15803 | 2756 ft | 13 kts | 115° |
| 2026-04-24 23:04 | -41.14975 | -71.15698 | 2757 ft | 13 kts | 115° |
| 2026-04-24 23:04 | -41.15013 | -71.15593 | 2755 ft | 13 kts | 115° |
| 2026-04-24 23:05 | -41.15050 | -71.15483 | 2756 ft | 15 kts | 113° |
| 2026-04-24 23:05 | -41.15101 | -71.15339 | 2754 ft | 18 kts | 115° |
| 2026-04-24 23:05 | -41.15151 | -71.15191 | 2757 ft | 18 kts | 114° |
| 2026-04-24 23:05 | -41.15211 | -71.15046 | 2758 ft | 18 kts | 122° |
| 2026-04-24 23:06 | -41.15256 | -71.14892 | 2757 ft | 18 kts | 110° |
| 2026-04-24 23:06 | -41.15309 | -71.14738 | 2755 ft | 20 kts | 116° |
| 2026-04-24 23:06 | -41.15369 | -71.14567 | 2756 ft | 20 kts | 112° |
| 2026-04-24 23:06 | -41.15453 | -71.14477 | 2764 ft | 17 kts | 194° |
| 2026-04-24 23:07 | -41.15527 | -71.14557 | 2759 ft | 12 kts | 271° |
| 2026-04-24 23:07 | -41.15485 | -71.14697 | 2759 ft | 35 kts | 294° |
| 2026-04-24 23:07 | -41.15268 | -71.15324 | 2759 ft | 117 kts | 294° |
| 2026-04-24 23:07 | -41.14852 | -71.16502 | 3249 ft | 142 kts | 293° |
| 2026-04-24 23:08 | -41.14449 | -71.17688 | 4176 ft | 151 kts | 294° |
| 2026-04-24 23:08 | -41.13970 | -71.19116 | 4641 ft | 187 kts | 293° |
| 2026-04-24 23:08 | -41.13401 | -71.20814 | 4884 ft | 217 kts | 293° |
| 2026-04-24 23:08 | -41.12765 | -71.22707 | 5477 ft | 230 kts | 292° |
| 2026-04-24 23:09 | -41.12099 | -71.24678 | 6297 ft | 235 kts | 292° |
| 2026-04-24 23:09 | -41.11428 | -71.26664 | 7185 ft | 237 kts | 291° |
| 2026-04-24 23:09 | -41.10751 | -71.28664 | 8022 ft | 240 kts | 290° |
| 2026-04-24 23:09 | -41.10064 | -71.30691 | 8877 ft | 243 kts | 290° |
| 2026-04-24 23:10 | -41.09367 | -71.32744 | 9703 ft | 246 kts | 289° |
| 2026-04-24 23:10 | -41.08660 | -71.34826 | 10486 ft | 249 kts | 289° |
| 2026-04-24 23:10 | -41.07709 | -71.36767 | 11088 ft | 261 kts | 310° |
| 2026-04-24 23:10 | -41.06136 | -71.38060 | 11881 ft | 274 kts | 333° |
| 2026-04-24 23:11 | -41.04245 | -71.38521 | 12658 ft | 289 kts | 355° |
| 2026-04-24 23:11 | -41.02215 | -71.37938 | 13437 ft | 306 kts | 21° |
| 2026-04-24 23:11 | -41.00494 | -71.36229 | 14220 ft | 317 kts | 48° |
| 2026-04-24 23:11 | -40.99179 | -71.33914 | 14720 ft | 323 kts | 45° |
| 2026-04-24 23:12 | -40.97312 | -71.32145 | 14897 ft | 340 kts | 21° |
| 2026-04-24 23:12 | -40.95073 | -71.30795 | 15123 ft | 369 kts | 21° |
| 2026-04-24 23:12 | -40.92692 | -71.29251 | 15642 ft | 387 kts | 24° |
| 2026-04-24 23:12 | -40.90288 | -71.27538 | 16421 ft | 397 kts | 26° |
| 2026-04-24 23:13 | -40.87883 | -71.25719 | 17342 ft | 402 kts | 27° |
| 2026-04-24 23:13 | -40.85460 | -71.23829 | 18317 ft | 406 kts | 27° |
| 2026-04-24 23:13 | -40.83025 | -71.21901 | 19155 ft | 411 kts | 27° |
| 2026-04-24 23:13 | -40.80566 | -71.19946 | 19987 ft | 415 kts | 27° |
| 2026-04-24 23:14 | -40.78075 | -71.17964 | 20832 ft | 420 kts | 27° |
| 2026-04-24 23:14 | -40.75560 | -71.15966 | 21675 ft | 424 kts | 27° |
| 2026-04-24 23:14 | -40.73017 | -71.13953 | 22504 ft | 429 kts | 27° |
| 2026-04-24 23:14 | -40.70443 | -71.11917 | 23338 ft | 434 kts | 27° |
| 2026-04-24 23:15 | -40.67840 | -71.09859 | 24108 ft | 439 kts | 27° |
| 2026-04-24 23:15 | -40.65213 | -71.07786 | 24817 ft | 442 kts | 27° |
| 2026-04-24 23:15 | -40.62567 | -71.05703 | 25533 ft | 445 kts | 27° |
| 2026-04-24 23:15 | -40.60801 | -71.04315 | 26000 ft | 446 kts | 26° |
| 2026-04-24 23:16 | -40.57098 | -71.01879 | 26970 ft | 444 kts | 17° |
| 2026-04-24 23:16 | -40.54194 | -71.00518 | 27597 ft | 444 kts | 11° |
| 2026-04-24 23:16 | -40.51197 | -70.99550 | 28203 ft | 445 kts | 7° |
| 2026-04-24 23:16 | -40.48169 | -70.98663 | 28798 ft | 448 kts | 7° |
| 2026-04-24 23:17 | -40.45113 | -70.97770 | 29375 ft | 451 kts | 7° |
| 2026-04-24 23:17 | -40.42041 | -70.96867 | 29958 ft | 454 kts | 7° |
| 2026-04-24 23:17 | -40.38943 | -70.95949 | 30456 ft | 457 kts | 7° |
| 2026-04-24 23:17 | -40.35837 | -70.95021 | 30897 ft | 460 kts | 7° |
| 2026-04-24 23:18 | -40.32706 | -70.94082 | 31329 ft | 463 kts | 7° |
| 2026-04-24 23:18 | -40.29562 | -70.93136 | 31774 ft | 465 kts | 7° |
| 2026-04-24 23:18 | -40.26396 | -70.92183 | 32180 ft | 467 kts | 7° |
| 2026-04-24 23:18 | -40.23221 | -70.91227 | 32592 ft | 470 kts | 7° |
| 2026-04-24 23:19 | -40.20028 | -70.90267 | 32957 ft | 472 kts | 7° |
| 2026-04-24 23:19 | -40.16820 | -70.89305 | 33305 ft | 474 kts | 7° |
| 2026-04-24 23:19 | -40.13597 | -70.88338 | 33648 ft | 476 kts | 7° |
| 2026-04-24 23:19 | -40.10358 | -70.87367 | 33978 ft | 479 kts | 6° |
| 2026-04-24 23:20 | -40.07110 | -70.86394 | 34285 ft | 480 kts | 6° |
| 2026-04-24 23:20 | -40.03847 | -70.85419 | 34582 ft | 481 kts | 6° |
| 2026-04-24 23:20 | -40.00579 | -70.84444 | 34890 ft | 482 kts | 6° |
| 2026-04-24 23:20 | -39.97302 | -70.83466 | 35176 ft | 484 kts | 6° |
| 2026-04-24 23:21 | -39.94012 | -70.82487 | 35472 ft | 485 kts | 6° |
| 2026-04-24 23:21 | -39.90726 | -70.81509 | 35800 ft | 486 kts | 6° |
| 2026-04-24 23:21 | -39.87417 | -70.80524 | 36098 ft | 487 kts | 5° |
| 2026-04-24 23:21 | -39.84108 | -70.79541 | 36397 ft | 488 kts | 5° |
| 2026-04-24 23:22 | -39.80794 | -70.78557 | 36704 ft | 490 kts | 5° |
| 2026-04-24 23:22 | -39.77466 | -70.77570 | 37005 ft | 491 kts | 5° |
| 2026-04-24 23:22 | -39.74138 | -70.76584 | 37296 ft | 492 kts | 5° |
| 2026-04-24 23:22 | -39.70794 | -70.75594 | 37545 ft | 493 kts | 5° |
| 2026-04-24 23:23 | -39.67442 | -70.74604 | 37759 ft | 495 kts | 5° |
| 2026-04-24 23:23 | -39.64125 | -70.73626 | 38019 ft | 496 kts | 5° |
| 2026-04-24 23:23 | -39.60756 | -70.72632 | 38314 ft | 497 kts | 5° |
| 2026-04-24 23:23 | -39.57382 | -70.71637 | 38626 ft | 498 kts | 5° |
| 2026-04-24 23:24 | -39.54006 | -70.70642 | 38886 ft | 499 kts | 5° |
| 2026-04-24 23:24 | -39.50616 | -70.69644 | 39065 ft | 500 kts | 5° |
| 2026-04-24 23:24 | -39.47205 | -70.68643 | 39113 ft | 503 kts | 5° |
| 2026-04-24 23:25 | -39.40415 | -70.66648 | 39170 ft | 501 kts | 5° |
| 2026-04-24 23:25 | -39.33652 | -70.64662 | 39190 ft | 498 kts | 5° |
| 2026-04-24 23:26 | -39.26902 | -70.62691 | 39162 ft | 497 kts | 5° |
| 2026-04-24 23:26 | -39.20159 | -70.60725 | 39166 ft | 497 kts | 5° |
| 2026-04-24 23:27 | -39.13412 | -70.58762 | 39168 ft | 497 kts | 5° |
| 2026-04-24 23:27 | -39.06650 | -70.56800 | 39177 ft | 499 kts | 5° |
| 2026-04-24 23:28 | -38.99875 | -70.54835 | 39173 ft | 499 kts | 5° |
| 2026-04-24 23:28 | -38.93084 | -70.52868 | 39184 ft | 501 kts | 4° |
| 2026-04-24 23:29 | -38.87373 | -70.51220 | 39181 ft | 503 kts | 4° |
| 2026-04-24 23:29 | -38.79428 | -70.48929 | 39159 ft | 503 kts | 4° |
| 2026-04-24 23:30 | -38.72600 | -70.46963 | 39163 ft | 503 kts | 4° |
| 2026-04-24 23:30 | -38.65745 | -70.44997 | 39308 ft | 506 kts | 4° |
| 2026-04-24 23:30 | -38.62306 | -70.44011 | 39542 ft | 506 kts | 4° |
| 2026-04-24 23:31 | -38.58872 | -70.43026 | 39797 ft | 505 kts | 4° |
| 2026-04-24 23:31 | -38.53149 | -70.41390 | 39746 ft | 507 kts | 4° |
| 2026-04-24 23:32 | -38.45178 | -70.39108 | 39739 ft | 500 kts | 4° |
| 2026-04-24 23:32 | -38.38386 | -70.37176 | 39744 ft | 500 kts | 4° |
| 2026-04-24 23:33 | -38.32799 | -70.35517 | 39712 ft | 504 kts | 8° |
| 2026-04-24 23:33 | -38.26236 | -70.32060 | 39747 ft | 518 kts | 21° |
| 2026-04-24 23:34 | -38.19175 | -70.26115 | 39737 ft | 527 kts | 29° |
| 2026-04-24 23:34 | -38.14185 | -70.21570 | 39733 ft | 527 kts | 29° |
| 2026-04-24 23:35 | -38.07238 | -70.15322 | 39715 ft | 526 kts | 28° |
| 2026-04-24 23:35 | -38.02220 | -70.10876 | 39729 ft | 525 kts | 28° |
| 2026-04-24 23:36 | -37.96233 | -70.05601 | 39735 ft | 524 kts | 28° |
| 2026-04-24 23:36 | -37.90240 | -70.00331 | 39721 ft | 524 kts | 28° |
| 2026-04-24 23:37 | -37.63066 | -69.76533 | 39700 ft | 522 kts | 28° |
| 2026-04-24 23:37 | -36.92129 | -69.15442 | 39705 ft | 519 kts | 28° |
| 2026-04-24 23:38 | -36.44249 | -68.74977 | 39675 ft | 520 kts | 27° |
| 2026-04-24 23:38 | -35.96105 | -68.34932 | 39703 ft | 521 kts | 27° |
| 2026-04-24 23:39 | -35.49556 | -67.96773 | 39651 ft | 519 kts | 26° |
| 2026-04-24 23:39 | -35.01347 | -67.57802 | 39616 ft | 522 kts | 26° |
| 2026-04-24 23:40 | -34.52577 | -67.18953 | 39589 ft | 526 kts | 25° |
| 2026-04-24 23:40 | -34.04171 | -66.80928 | 39616 ft | 527 kts | 25° |
| 2026-04-24 23:41 | -33.55662 | -66.43359 | 39609 ft | 523 kts | 24° |
| 2026-04-24 23:41 | -33.08415 | -66.07249 | 39543 ft | 518 kts | 22° |
| 2026-04-24 23:42 | -33.01137 | -66.01778 | 39622 ft | 512 kts | 20° |
| 2026-04-24 23:42 | -32.94850 | -65.98001 | 39646 ft | 505 kts | 15° |
| 2026-04-24 23:43 | -32.88560 | -65.94442 | 39215 ft | 496 kts | 14° |
| 2026-04-24 23:43 | -32.85435 | -65.92665 | 38482 ft | 500 kts | 14° |
| 2026-04-24 23:43 | -32.82302 | -65.90777 | 37484 ft | 513 kts | 19° |
| 2026-04-24 23:44 | -32.79265 | -65.88453 | 36676 ft | 525 kts | 25° |
| 2026-04-24 23:44 | -32.76354 | -65.85820 | 36175 ft | 523 kts | 30° |
| 2026-04-24 23:44 | -32.73658 | -65.82975 | 35541 ft | 516 kts | 36° |
| 2026-04-24 23:44 | -32.71161 | -65.79946 | 34716 ft | 510 kts | 37° |
| 2026-04-24 23:45 | -32.68722 | -65.76937 | 33796 ft | 504 kts | 37° |
| 2026-04-24 23:45 | -32.66313 | -65.73958 | 32839 ft | 497 kts | 37° |
| 2026-04-24 23:45 | -32.63934 | -65.71029 | 31992 ft | 488 kts | 37° |
| 2026-04-24 23:45 | -32.61594 | -65.68164 | 31194 ft | 478 kts | 37° |
| 2026-04-24 23:46 | -32.59293 | -65.65363 | 30406 ft | 470 kts | 37° |
| 2026-04-24 23:46 | -32.57030 | -65.62620 | 29503 ft | 462 kts | 37° |
| 2026-04-24 23:46 | -32.54803 | -65.59929 | 28550 ft | 453 kts | 37° |
| 2026-04-24 23:46 | -32.52603 | -65.57278 | 27868 ft | 449 kts | 37° |
| 2026-04-24 23:47 | -32.50425 | -65.54657 | 27360 ft | 445 kts | 37° |
| 2026-04-24 23:47 | -32.48262 | -65.52056 | 26913 ft | 441 kts | 38° |
| 2026-04-24 23:47 | -32.46117 | -65.49476 | 26473 ft | 438 kts | 38° |
| 2026-04-24 23:47 | -32.44018 | -65.46950 | 26013 ft | 435 kts | 38° |
| 2026-04-24 23:48 | -32.41876 | -65.44373 | 25575 ft | 432 kts | 38° |
| 2026-04-24 23:48 | -32.39804 | -65.41883 | 25134 ft | 429 kts | 38° |
| 2026-04-24 23:48 | -32.37692 | -65.39347 | 24682 ft | 426 kts | 38° |
| 2026-04-24 23:48 | -32.35644 | -65.36888 | 24261 ft | 424 kts | 39° |
| 2026-04-24 23:49 | -32.33575 | -65.34405 | 23806 ft | 422 kts | 39° |
| 2026-04-24 23:49 | -32.31517 | -65.31938 | 23299 ft | 420 kts | 39° |
| 2026-04-24 23:49 | -32.29471 | -65.29486 | 22810 ft | 417 kts | 39° |
| 2026-04-24 23:49 | -32.27445 | -65.27059 | 22368 ft | 413 kts | 40° |
| 2026-04-24 23:50 | -32.25438 | -65.24657 | 21914 ft | 409 kts | 40° |
| 2026-04-24 23:50 | -32.23445 | -65.22272 | 21513 ft | 406 kts | 40° |
| 2026-04-24 23:50 | -32.21472 | -65.19915 | 21092 ft | 403 kts | 41° |
| 2026-04-24 23:50 | -32.19509 | -65.17571 | 20674 ft | 400 kts | 41° |
| 2026-04-24 23:51 | -32.17560 | -65.15244 | 20254 ft | 397 kts | 41° |
| 2026-04-24 23:51 | -32.15629 | -65.12941 | 19808 ft | 395 kts | 41° |
| 2026-04-24 23:51 | -32.13701 | -65.10642 | 19423 ft | 392 kts | 41° |
| 2026-04-24 23:51 | -32.11786 | -65.08363 | 19016 ft | 391 kts | 42° |
| 2026-04-24 23:52 | -32.09875 | -65.06088 | 18596 ft | 389 kts | 42° |
| 2026-04-24 23:52 | -32.07973 | -65.03825 | 18129 ft | 388 kts | 43° |
| 2026-04-24 23:52 | -32.06077 | -65.01569 | 17671 ft | 386 kts | 43° |
| 2026-04-24 23:52 | -32.04188 | -64.99324 | 17230 ft | 384 kts | 43° |
| 2026-04-24 23:53 | -32.02313 | -64.97097 | 16798 ft | 382 kts | 43° |
| 2026-04-24 23:53 | -32.00446 | -64.94881 | 16376 ft | 380 kts | 43° |
| 2026-04-24 23:53 | -31.98590 | -64.92678 | 15925 ft | 378 kts | 42° |
| 2026-04-24 23:53 | -31.96746 | -64.90491 | 15518 ft | 373 kts | 42° |
| 2026-04-24 23:54 | -31.94924 | -64.88332 | 15114 ft | 370 kts | 43° |
| 2026-04-24 23:54 | -31.93116 | -64.86189 | 14662 ft | 368 kts | 43° |
| 2026-04-24 23:54 | -31.91313 | -64.84056 | 14257 ft | 366 kts | 43° |
| 2026-04-24 23:54 | -31.89525 | -64.81941 | 13826 ft | 364 kts | 43° |
| 2026-04-24 23:55 | -31.87746 | -64.79838 | 13370 ft | 362 kts | 43° |
| 2026-04-24 23:55 | -31.85975 | -64.77747 | 12905 ft | 359 kts | 43° |
| 2026-04-24 23:55 | -31.84217 | -64.75673 | 12468 ft | 356 kts | 43° |
| 2026-04-24 23:55 | -31.82475 | -64.73618 | 12039 ft | 350 kts | 43° |
| 2026-04-24 23:56 | -31.81349 | -64.72289 | 11763 ft | 346 kts | 44° |
| 2026-04-24 23:56 | -31.79091 | -64.69624 | 11214 ft | 342 kts | 44° |
| 2026-04-24 23:56 | -31.77417 | -64.67652 | 10793 ft | 340 kts | 44° |
| 2026-04-24 23:56 | -31.75751 | -64.65691 | 10427 ft | 337 kts | 44° |
| 2026-04-24 23:57 | -31.74126 | -64.63779 | 10285 ft | 326 kts | 44° |
| 2026-04-24 23:57 | -31.72552 | -64.61928 | 10131 ft | 315 kts | 44° |
| 2026-04-24 23:57 | -31.71532 | -64.60729 | 9982 ft | 311 kts | 44° |
| 2026-04-24 23:57 | -31.70021 | -64.58953 | 9660 ft | 307 kts | 44° |
| 2026-04-24 23:58 | -31.68106 | -64.56704 | 9134 ft | 286 kts | 44° |
| 2026-04-24 23:58 | -31.66707 | -64.55061 | 8824 ft | 284 kts | 44° |
| 2026-04-24 23:58 | -31.65314 | -64.53427 | 8501 ft | 283 kts | 44° |
| 2026-04-24 23:58 | -31.63927 | -64.51800 | 8178 ft | 281 kts | 44° |
| 2026-04-24 23:59 | -31.62549 | -64.50184 | 7873 ft | 279 kts | 45° |
| 2026-04-24 23:59 | -31.61178 | -64.48577 | 7558 ft | 278 kts | 44° |
| 2026-04-24 23:59 | -31.59815 | -64.46981 | 7236 ft | 276 kts | 45° |
| 2026-04-24 23:59 | -31.58457 | -64.45392 | 6918 ft | 275 kts | 45° |
| 2026-04-25 00:00 | -31.57108 | -64.43813 | 6623 ft | 274 kts | 45° |
| 2026-04-25 00:00 | -31.55766 | -64.42244 | 6304 ft | 272 kts | 45° |
| 2026-04-25 00:00 | -31.54449 | -64.40702 | 5982 ft | 264 kts | 45° |
| 2026-04-25 00:00 | -31.53155 | -64.39189 | 5682 ft | 262 kts | 45° |
| 2026-04-25 00:01 | -31.51871 | -64.37688 | 5365 ft | 260 kts | 45° |
| 2026-04-25 00:01 | -31.50599 | -64.36203 | 5101 ft | 257 kts | 45° |
| 2026-04-25 00:01 | -31.49341 | -64.34732 | 4808 ft | 255 kts | 44° |
| 2026-04-25 00:01 | -31.48090 | -64.33272 | 4554 ft | 251 kts | 44° |
| 2026-04-25 00:02 | -31.46887 | -64.31868 | 4413 ft | 233 kts | 44° |
| 2026-04-25 00:02 | -31.45796 | -64.30593 | 4290 ft | 214 kts | 44° |
| 2026-04-25 00:02 | -31.44782 | -64.29412 | 4208 ft | 203 kts | 44° |
| 2026-04-25 00:02 | -31.43786 | -64.28251 | 4183 ft | 195 kts | 44° |
| 2026-04-25 00:03 | -31.42842 | -64.27151 | 3932 ft | 193 kts | 44° |
| 2026-04-25 00:03 | -31.41918 | -64.26075 | 3698 ft | 181 kts | 43° |
| 2026-04-25 00:03 | -31.41066 | -64.25082 | 3494 ft | 164 kts | 44° |
| 2026-04-25 00:03 | -31.40290 | -64.24178 | 3301 ft | 152 kts | 43° |
| 2026-04-25 00:04 | -31.39563 | -64.23333 | 3096 ft | 140 kts | 43° |
| 2026-04-25 00:04 | -31.38909 | -64.22572 | 3092 ft | 129 kts | 43° |
| 2026-04-25 00:04 | -31.38264 | -64.21823 | 2951 ft | 135 kts | 43° |
| 2026-04-25 00:04 | -31.37600 | -64.21053 | 2614 ft | 131 kts | 41° |
| 2026-04-25 00:05 | -31.36815 | -64.20693 | 2394 ft | 125 kts | 353° |
| 2026-04-25 00:05 | -31.35943 | -64.20910 | 2258 ft | 131 kts | 358° |
| 2026-04-25 00:05 | -31.35047 | -64.20789 | 2079 ft | 127 kts | 6° |
| 2026-04-25 00:05 | -31.34177 | -64.20785 | 1945 ft | 119 kts | 0° |
| 2026-04-25 00:06 | -31.33350 | -64.20799 | 1775 ft | 119 kts | 0° |
| 2026-04-25 00:06 | -31.32530 | -64.20815 | 1672 ft | 116 kts | 1° |
| 2026-04-25 00:06 | -31.31821 | -64.20825 | 1624 ft | 82 kts | 359° |
| 2026-04-25 00:06 | -31.31567 | -64.20829 | 1625 ft | 11 kts | 357° |
| 2026-04-25 00:07 | -31.31490 | -64.20848 | 1632 ft | 11 kts | 326° |
| 2026-04-25 00:07 | -31.31466 | -64.20933 | 1618 ft | 11 kts | 270° |
| 2026-04-25 00:07 | -31.31470 | -64.21026 | 1620 ft | 11 kts | 264° |
| 2026-04-25 00:07 | -31.31476 | -64.21092 | 1623 ft | 8 kts | 263° |
| 2026-04-25 00:08 | -31.31483 | -64.21153 | 1619 ft | 6 kts | 262° |
| 2026-04-25 00:08 | -31.31486 | -64.21170 | 1622 ft | 2 kts | 261° |
| 2026-04-25 00:08 | -31.31487 | -64.21180 | 1623 ft | 0 kts | 261° |
| 2026-04-25 00:08 | -31.31487 | -64.21181 | 1623 ft | 0 kts | 261° |